Latest Weather Observations for Mandora

IDW60801

Issued at 10:32 am WST Wednesday 4 March 2015 (issued every 30 minutes, with the page automatically refreshed every 10 minutes)

About weather observations | Map of weather stations | Latest weather observations for WA | Other Formats
Station Details ID: 004019 Name: MANDORA Lat: -19.74 Lon: 120.84 Height: 7.5 m
Data from the previous 72 hours. | See also: Recent months at Mandora
Date/Time
WST
Temp
°C
App
Temp
°C
Dew
Point
Rel
Hum
%
Delta-T
°C
Wind Press
QNH
hPa
Press
MSL
hPa
Rain
since 9 am
mm
Dir
 
Spd
km/h
Gust
km/h
Spd
kts
Gust
kts
04/10:30am 30.0 31.9 23.7 69 4.4 SSE 20 33 11 18 1008.8 - 0.0
04/10:00am 29.3 30.6 24.0 73 3.7 SSE 24 37 13 20 1008.7 - 0.0
04/09:30am 28.4 30.2 24.2 78 2.9 S 22 33 12 18 1008.9 - 0.0
04/09:00am 27.2 28.7 23.7 81 2.4 S 22 43 12 23 1008.8 1008.7 13.4
04/08:30am 26.5 27.7 23.2 82 2.2 S 22 33 12 18 1008.9 - 13.4
04/08:00am 25.8 27.6 23.3 86 1.7 S 19 30 10 16 1008.9 - 13.4
04/07:30am 25.2 27.1 23.4 90 1.2 S 19 26 10 14 1008.8 - 13.4
04/07:00am 24.9 26.8 23.7 93 0.8 S 20 28 11 15 1008.6 - 13.4
04/06:30am 25.0 26.8 23.6 92 1.0 S 20 28 11 15 1008.7 - 12.8
04/06:00am 25.3 27.5 23.2 88 1.4 SSE 17 28 9 15 1008.9 1008.8 12.6
04/05:30am 25.3 28.7 23.4 89 1.3 SSE 11 19 6 10 1008.3 - 12.4
04/05:00am 25.3 28.8 23.5 90 1.2 S 11 15 6 8 1007.6 - 12.4
04/04:30am 24.9 28.0 23.5 92 1.0 SSW 13 17 7 9 1007.0 - 12.4
04/04:00am 24.8 27.7 23.2 91 1.1 S 13 17 7 9 1007.2 - 12.4
04/03:30am 24.6 27.6 23.4 93 0.8 S 13 20 7 11 1006.3 - 12.4
04/03:00am 24.5 27.6 23.5 94 0.7 SW 13 19 7 10 1006.0 1005.9 12.4
04/02:30am 24.2 26.8 23.3 95 0.6 SW 15 20 8 11 1005.4 - 12.4
04/02:00am 24.2 27.6 23.3 95 0.6 SW 11 15 6 8 1005.9 - 12.4
04/01:30am 24.1 28.2 23.2 95 0.6 S 7 13 4 7 1005.9 - 12.4
04/01:00am 23.6 26.7 22.8 95 0.5 S 11 15 6 8 1005.7 - 12.4
04/12:30am 23.2 25.6 22.2 94 0.7 NNW 13 19 7 10 1006.4 - 12.4
04/12:23am 23.1 25.0 22.1 94 0.7 N 15 28 8 15 1006.9 - 12.2
04/12:00am 23.7 22.5 21.6 88 1.4 E 30 52 16 28 1008.9 1008.8 1.2
 
Date/Time
WST
Temp
°C
App
Temp
°C
Dew
Point
Rel
Hum
%
Delta-T
°C
Wind Press
QNH
hPa
Press
MSL
hPa
Rain
since 9 am
mm
Dir
 
Spd
km/h
Gust
km/h
Spd
kts
Gust
kts
03/11:56pm 24.9 24.2 21.8 83 2.1 E 28 52 15 28 1009.0 - 0.0
03/11:53pm 25.6 25.3 22.5 83 2.1 E 28 41 15 22 1009.0 - 0.0
03/11:30pm 25.1 28.6 22.8 87 1.6 SE 9 13 5 7 1007.3 - 0.0
03/11:00pm 25.2 28.2 23.3 89 1.3 SSE 13 20 7 11 1008.6 - 0.0
03/10:30pm 26.1 28.1 22.2 79 2.6 SSE 15 26 8 14 1008.6 - 0.0
03/10:00pm 29.3 31.1 23.5 71 4.0 ESE 20 39 11 21 1008.9 - 0.0
03/09:30pm 29.3 34.5 25.1 78 3.0 WSW 7 11 4 6 1007.3 - 0.0
03/09:00pm 29.4 33.6 24.7 76 3.3 W 11 15 6 8 1006.9 1006.8 0.0
03/08:30pm 29.4 33.1 24.5 75 3.4 W 13 17 7 9 1006.5 - 0.0
03/08:00pm 29.4 33.2 24.7 76 3.3 WNW 13 17 7 9 1006.5 - 0.0
03/07:30pm 29.5 33.9 25.0 77 3.2 WNW 11 15 6 8 1006.4 - 0.0
03/07:00pm 29.8 34.2 25.1 76 3.3 WNW 11 15 6 8 1006.1 - 0.0
03/06:30pm 30.1 34.4 24.9 73 3.6 WNW 11 17 6 9 1005.7 - 0.0
03/06:00pm 30.7 34.4 25.1 72 4.0 NW 15 20 8 11 1004.8 1004.7 0.0
03/05:30pm 31.4 34.5 24.8 68 4.6 NW 17 22 9 12 1004.5 - 0.0
03/05:00pm 32.3 36.0 25.1 65 5.1 WNW 15 22 8 12 1004.6 - 0.0
03/04:30pm 32.0 35.1 24.8 65 5.1 WNW 17 22 9 12 1004.5 - 0.0
03/04:00pm 32.9 35.6 24.1 60 6.2 WNW 17 24 9 13 1004.6 - 0.0
03/03:30pm 33.0 36.5 24.2 60 6.2 WNW 13 20 7 11 1004.7 - 0.0
03/03:00pm 32.6 35.7 24.1 61 6.0 WNW 15 22 8 12 1004.8 1004.7 0.0
03/02:30pm 33.3 36.4 24.2 59 6.4 WNW 15 20 8 11 1005.3 - 0.0
03/02:00pm 34.0 37.0 24.0 56 7.0 NW 15 20 8 11 1005.4 - 0.0
03/01:30pm 33.5 37.3 24.1 58 6.6 NW 11 19 6 10 1005.9 - 0.0
03/01:00pm 33.2 36.9 23.2 55 6.9 WNW 9 15 5 8 1006.4 - 0.0
03/12:30pm 32.7 36.9 23.1 57 6.6 N 6 9 3 5 1007.2 - 0.0
03/12:00pm 31.8 35.8 22.8 59 6.2 N 6 9 3 5 1007.7 1007.6 0.0
03/11:30am 31.7 35.8 23.2 60 5.9 NE 7 13 4 7 1008.0 - 0.0
03/11:00am 31.1 34.8 23.2 63 5.4 NNE 9 15 5 8 1008.5 - 0.0
03/10:30am 30.9 34.3 23.3 64 5.2 NE 11 15 6 8 1008.9 - 0.0
03/10:00am 30.9 34.1 23.0 62 5.4 NE 11 15 6 8 1009.0 - 0.0
03/09:30am 30.6 33.4 23.0 64 5.2 ENE 13 20 7 11 1009.0 - 0.0
03/09:00am 30.0 33.7 23.9 70 4.2 ENE 11 20 6 11 1009.2 1009.1 0.0
03/08:30am 29.8 33.3 23.5 69 4.3 E 11 15 6 8 1009.1 - 0.0
03/08:00am 29.7 33.2 22.9 67 4.6 SSE 9 19 5 10 1008.8 - 0.0
03/07:30am 29.2 31.8 22.7 68 4.4 SSW 13 17 7 9 1008.5 - 0.0
03/07:00am 28.0 31.4 23.4 76 3.2 SSW 11 15 6 8 1008.2 - 0.0
03/06:30am 26.5 30.9 23.8 85 1.9 SSW 7 9 4 5 1008.1 - 0.0
03/06:00am 25.8 29.5 23.3 86 1.7 SW 9 11 5 6 1007.8 1007.7 0.0
03/05:30am 26.0 29.7 23.3 85 1.8 WSW 9 11 5 6 1007.5 - 0.0
03/05:00am 26.4 30.2 23.5 84 2.0 SSW 9 11 5 6 1007.1 - 0.0
03/04:30am 26.9 31.5 24.2 85 1.9 S 7 11 4 6 1006.9 - 0.0
03/04:00am 27.2 31.9 24.3 84 2.0 S 7 9 4 5 1006.9 - 0.0
03/03:30am 27.0 31.4 24.5 86 1.7 S 9 11 5 6 1006.6 - 0.0
03/03:00am 26.9 31.8 24.7 88 1.5 SSW 7 9 4 5 1006.3 1006.2 0.0
03/02:30am 27.2 32.1 24.6 86 1.8 SSW 7 9 4 5 1006.3 - 0.0
03/02:00am 27.5 32.4 24.7 85 1.9 S 7 9 4 5 1006.5 - 0.0
03/01:30am 27.6 32.7 24.6 84 2.1 SSE 6 7 3 4 1006.7 - 0.0
03/01:00am 27.5 32.3 24.5 84 2.1 SW 7 9 4 5 1006.6 - 0.0
03/12:30am 28.0 32.6 24.2 80 2.6 W 7 11 4 6 1006.7 - 0.0
03/12:00am 27.9 32.2 24.3 81 2.5 W 9 11 5 6 1006.8 1006.7 0.0
 
Date/Time
WST
Temp
°C
App
Temp
°C
Dew
Point
Rel
Hum
%
Delta-T
°C
Wind Press
QNH
hPa
Press
MSL
hPa
Rain
since 9 am
mm
Dir
 
Spd
km/h
Gust
km/h
Spd
kts
Gust
kts
02/11:30pm 27.6 31.9 24.2 82 2.4 W 9 11 5 6 1006.8 - 0.0
02/11:00pm 27.7 32.4 24.3 82 2.4 WSW 7 9 4 5 1007.1 - 0.0
02/10:30pm 27.7 32.4 24.3 82 2.4 W 7 9 4 5 1007.2 - 0.0
02/10:00pm 28.0 32.5 24.0 79 2.8 W 7 9 4 5 1007.1 - 0.0
02/09:30pm 28.2 32.2 23.8 77 3.0 W 9 13 5 7 1006.9 - 0.0
02/09:00pm 27.9 31.6 23.3 76 3.2 W 9 13 5 7 1006.6 1006.5 0.0
02/08:30pm 28.3 32.1 23.4 75 3.4 W 9 13 5 7 1006.0 - 0.0
02/08:00pm 28.4 31.9 23.5 75 3.4 WNW 11 15 6 8 1005.3 - 0.0
02/07:30pm 28.7 32.2 23.6 74 3.5 WNW 11 15 6 8 1005.0 - 0.0
02/07:00pm 28.8 32.1 23.9 75 3.4 WNW 13 17 7 9 1004.6 - 0.0
02/06:30pm 29.3 32.8 23.5 71 4.0 WNW 11 15 6 8 1004.5 - 0.0
02/06:00pm 30.2 32.9 23.4 67 4.7 WNW 15 20 8 11 1004.3 1004.2 0.0
02/05:30pm 30.8 33.1 23.5 65 5.0 NW 17 26 9 14 1004.2 - 0.0
02/05:00pm 31.3 33.3 22.9 61 5.8 NW 17 24 9 13 1004.2 - 0.0
02/04:30pm 31.8 33.2 22.5 58 6.4 NW 19 28 10 15 1004.0 - 0.0
02/04:00pm 32.6 33.6 21.8 53 7.3 NW 19 26 10 14 1004.0 - 0.0
02/03:30pm 32.7 33.6 21.9 53 7.3 NW 20 30 11 16 1003.8 - 0.0
02/03:00pm 32.6 33.9 22.7 56 6.8 WNW 20 30 11 16 1003.8 1003.7 0.0
02/02:30pm 33.0 34.3 23.3 56 6.7 NW 22 30 12 16 1003.9 - 0.0
02/02:00pm 33.3 34.6 22.7 53 7.3 NW 20 28 11 15 1004.3 - 0.0
02/01:30pm 33.1 34.3 22.5 53 7.3 NW 20 32 11 17 1004.8 - 0.0
02/01:00pm 32.9 34.0 22.4 54 7.2 NW 20 28 11 15 1005.3 - 0.0
02/12:30pm 33.0 35.0 23.0 55 6.9 NW 17 26 9 14 1006.0 - 0.0
02/12:00pm 33.0 34.9 22.7 54 7.1 NW 17 28 9 15 1006.3 1006.2 0.0
02/11:30am 33.0 34.9 22.7 54 7.1 NW 17 26 9 14 1006.6 - 0.0
02/11:00am 32.8 35.8 23.4 57 6.5 WNW 13 20 7 11 1006.6 - 0.0
02/10:30am 31.8 34.6 23.6 62 5.7 W 15 22 8 12 1007.0 - 0.0
02/10:00am 32.4 35.1 22.8 57 6.6 WNW 13 19 7 10 1007.4 - 0.0
02/09:30am 31.2 34.7 23.6 64 5.3 W 11 17 6 9 1008.0 - 0.0
02/09:00am 30.7 33.7 23.4 65 5.0 SW 13 19 7 10 1008.0 1007.9 0.0
02/08:30am 30.8 33.8 24.0 67 4.7 SW 15 24 8 13 1007.7 - 0.0
02/08:00am 29.7 31.7 23.9 71 4.0 SW 20 26 11 14 1007.5 - 0.0
02/07:30am 28.8 31.4 23.9 75 3.4 SW 17 24 9 13 1007.2 - 0.0
02/07:00am 27.6 32.2 24.8 85 2.0 SSW 9 15 5 8 1007.0 - 0.0
02/06:30am 26.4 32.0 24.8 91 1.1 SW 4 6 2 3 1006.7 - 0.0
02/06:00am 26.0 30.8 24.2 90 1.2 SW 6 7 3 4 1006.3 1006.2 0.0
02/05:30am 26.0 30.8 24.4 91 1.1 WSW 7 11 4 6 1005.8 - 0.0
02/05:00am 26.1 30.9 24.5 91 1.1 SW 7 9 4 5 1006.0 - 0.0
02/04:30am 26.2 31.1 24.6 91 1.1 SW 7 11 4 6 1006.0 - 0.0
02/04:00am 26.3 31.2 24.3 89 1.4 SW 6 6 3 3 1006.1 - 0.0
02/03:30am 26.4 31.0 24.2 88 1.5 SW 7 11 4 6 1005.8 - 0.0
02/03:00am 26.6 31.0 24.4 88 1.5 SW 9 13 5 7 1005.9 1005.8 0.0
02/02:30am 26.6 31.4 24.4 88 1.5 SW 7 9 4 5 1006.2 - 0.0
02/02:00am 26.7 31.3 24.7 89 1.4 WSW 9 13 5 7 1006.2 - 0.0
02/01:30am 26.7 31.3 24.7 89 1.4 SW 9 11 5 6 1006.4 - 0.0
02/01:00am 26.8 31.8 24.8 89 1.4 SW 7 9 4 5 1006.5 - 0.0
02/12:30am 27.0 31.6 24.8 88 1.5 WSW 9 11 5 6 1006.6 - 0.0
02/12:00am 27.2 32.1 24.6 86 1.8 W 7 11 4 6 1007.0 1006.9 0.0
 
Date/Time
WST
Temp
°C
App
Temp
°C
Dew
Point
Rel
Hum
%
Delta-T
°C
Wind Press
QNH
hPa
Press
MSL
hPa
Rain
since 9 am
mm
Dir
 
Spd
km/h
Gust
km/h
Spd
kts
Gust
kts
01/11:30pm 27.4 32.3 24.7 85 1.9 W 7 9 4 5 1007.1 - 0.0
01/11:00pm 27.8 31.8 24.4 82 2.4 W 11 15 6 8 1007.2 - 0.0
01/10:30pm 27.6 31.6 24.4 83 2.2 W 11 17 6 9 1007.4 - 0.0
01/10:00pm 27.4 32.0 24.7 85 1.9 WNW 9 11 5 6 1007.2 - 0.0
01/09:30pm 27.9 33.0 24.7 83 2.2 W 6 7 3 4 1007.1 - 0.0
01/09:00pm 28.1 32.7 24.7 82 2.4 W 9 13 5 7 1006.6 1006.5 0.0
01/08:30pm 28.3 32.9 24.7 81 2.5 WNW 9 13 5 7 1006.5 - 0.0
01/08:00pm 28.3 32.6 24.3 79 2.8 W 9 13 5 7 1006.0 - 0.0
01/07:30pm 28.4 32.4 24.4 79 2.8 WNW 11 15 6 8 1005.8 - 0.0
01/07:00pm 28.7 32.8 24.0 76 3.3 WNW 9 13 5 7 1005.6 - 0.0
01/06:30pm 29.1 32.9 24.0 74 3.5 WNW 11 13 6 7 1005.3 - 0.0
01/06:00pm 29.8 33.0 23.7 70 4.2 NW 13 20 7 11 1005.2 1005.1 0.0
01/05:30pm 30.5 33.7 23.7 67 4.7 NNW 13 20 7 11 1005.3 - 0.0
01/05:00pm 30.7 33.2 24.4 69 4.4 NNW 19 26 10 14 1005.3 - 0.0
01/04:30pm 31.6 33.7 23.7 63 5.5 NNW 19 26 10 14 1005.2 - 0.0
01/04:00pm 31.6 34.2 23.9 63 5.4 NW 17 26 9 14 1004.9 - 0.0
01/03:30pm 31.2 33.6 23.6 64 5.3 NW 17 24 9 13 1004.5 - 0.0
01/03:00pm 31.8 34.5 24.1 63 5.4 NNW 17 24 9 13 1004.9 1004.8 0.0
01/02:30pm 31.5 33.8 24.1 65 5.2 NNW 19 26 10 14 1005.2 - 0.0
01/02:00pm 31.6 34.6 24.7 67 4.8 NNW 17 26 9 14 1005.4 - 0.0
01/01:30pm 32.4 35.6 25.0 65 5.2 NW 17 24 9 13 1005.6 - 0.0
01/01:00pm 32.5 35.5 25.3 66 5.1 NW 19 28 10 15 1005.9 - 0.0
01/12:30pm 32.5 34.8 25.1 65 5.2 NNW 22 30 12 16 1006.5 - 0.0
01/12:00pm 33.1 37.3 25.4 64 5.5 N 13 19 7 10 1006.7 1006.6 0.0
01/11:30am 32.9 36.8 24.9 63 5.6 NNW 13 20 7 11 1007.5 - 0.0
01/11:00am 33.3 38.0 23.9 58 6.6 NE 6 9 3 5 1007.8 - 0.0

Other Formats:

Comma delimited format used in spreadsheet applications
http://www.bom.gov.au/fwo/IDW60801/IDW60801.94200.axf

JavaScript Object Notation format (JSON) in row-major order
http://www.bom.gov.au/fwo/IDW60801/IDW60801.94200.json